Time,TemperatureF,DewpointF,PressureIn,WindDirection,WindDirectionDegrees,WindSpeedMPH,WindSpeedGustMPH,Humidity,HourlyPrecipIn,Conditions,Clouds,dailyrainin,SoftwareType,DateUTC
2013-04-02 00:02:00,18.0,16.0,-100.00,West,280,9.0,10.0,92,-99.99,,,-99.99,,2013-04-02 05:02:00,
2013-04-02 00:32:00,15.0,14.0,-100.00,WNW,285,6.0,7.0,95,-99.99,,,-99.99,,2013-04-02 05:32:00,
2013-04-02 00:43:00,15.0,14.0,-100.00,WNW,285,6.0,7.0,95,-99.99,,,-99.99,,2013-04-02 05:43:00,
2013-04-02 00:52:00,15.0,14.0,-100.00,WNW,285,6.0,7.0,95,-99.99,,,-99.99,,2013-04-02 05:52:00,
2013-04-02 01:02:00,15.0,14.0,-100.00,WNW,285,6.0,7.0,95,-99.99,,,-99.99,,2013-04-02 06:02:00,
2013-04-02 01:10:00,16.0,14.0,-100.00,West,265,6.0,6.0,93,-99.99,,,-99.99,,2013-04-02 06:10:00,
2013-04-02 01:32:00,16.0,14.0,-100.00,West,265,6.0,6.0,93,-99.99,,,-99.99,,2013-04-02 06:32:00,
2013-04-02 01:42:00,16.0,14.0,-100.00,West,265,6.0,6.0,93,-99.99,,,-99.99,,2013-04-02 06:42:00,
2013-04-02 01:52:00,16.0,14.0,-100.00,West,265,6.0,6.0,93,-99.99,,,-99.99,,2013-04-02 06:52:00,
2013-04-02 02:02:00,16.0,14.0,-100.00,West,265,6.0,6.0,93,-99.99,,,-99.99,,2013-04-02 07:02:00,
2013-04-02 02:32:00,13.0,12.0,-100.00,West,280,3.0,4.0,97,-99.99,,,-99.99,,2013-04-02 07:32:00,
2013-04-02 02:43:00,13.0,12.0,-100.00,West,280,3.0,4.0,97,-99.99,,,-99.99,,2013-04-02 07:43:00,
2013-04-02 02:53:00,13.0,12.0,-100.00,West,280,3.0,4.0,97,-99.99,,,-99.99,,2013-04-02 07:53:00,
2013-04-02 03:02:00,13.0,12.0,-100.00,West,280,3.0,4.0,97,-99.99,,,-99.99,,2013-04-02 08:02:00,
2013-04-02 03:32:00,13.0,12.0,-100.00,West,270,6.0,7.0,95,-99.99,,,-99.99,,2013-04-02 08:32:00,
2013-04-02 03:43:00,13.0,12.0,-100.00,West,270,6.0,7.0,95,-99.99,,,-99.99,,2013-04-02 08:43:00,
2013-04-02 03:52:00,13.0,12.0,-100.00,West,270,6.0,7.0,95,-99.99,,,-99.99,,2013-04-02 08:52:00,
2013-04-02 04:02:00,13.0,12.0,-100.00,West,270,6.0,7.0,95,-99.99,,,-99.99,,2013-04-02 09:02:00,
2013-04-02 04:10:00,12.0,11.0,-100.00,WNW,285,9.0,10.0,96,-99.99,,,-99.99,,2013-04-02 09:10:00,
2013-04-02 04:33:00,12.0,11.0,-100.00,WNW,285,9.0,10.0,96,-99.99,,,-99.99,,2013-04-02 09:33:00,
2013-04-02 04:43:00,12.0,11.0,-100.00,WNW,285,9.0,10.0,96,-99.99,,,-99.99,,2013-04-02 09:43:00,
2013-04-02 04:53:00,12.0,11.0,-100.00,WNW,285,9.0,10.0,96,-99.99,,,-99.99,,2013-04-02 09:53:00,
2013-04-02 05:03:00,12.0,11.0,-100.00,WNW,285,9.0,10.0,96,-99.99,,,-99.99,,2013-04-02 10:03:00,
2013-04-02 05:33:00,12.0,11.0,-100.00,NW,305,7.0,7.0,96,-99.99,,,-99.99,,2013-04-02 10:33:00,
2013-04-02 05:42:00,12.0,11.0,-100.00,NW,305,7.0,7.0,96,-99.99,,,-99.99,,2013-04-02 10:42:00,
2013-04-02 05:52:00,12.0,11.0,-100.00,NW,305,7.0,7.0,96,-99.99,,,-99.99,,2013-04-02 10:52:00,
2013-04-02 06:02:00,12.0,11.0,-100.00,NW,305,7.0,7.0,96,-99.99,,,-99.99,,2013-04-02 11:02:00,
2013-04-02 06:33:00,13.0,13.0,-100.00,West,280,6.0,6.0,96,-99.99,,,-99.99,,2013-04-02 11:33:00,
2013-04-02 06:43:00,13.0,13.0,-100.00,West,280,6.0,6.0,96,-99.99,,,-99.99,,2013-04-02 11:43:00,
2013-04-02 06:53:00,13.0,13.0,-100.00,West,280,6.0,6.0,96,-99.99,,,-99.99,,2013-04-02 11:53:00,
2013-04-02 07:02:00,13.0,13.0,-100.00,West,280,6.0,6.0,96,-99.99,,,-99.99,,2013-04-02 12:02:00,
2013-04-02 07:32:00,15.0,14.0,-100.00,WSW,250,4.0,4.0,95,-99.99,,,-99.99,,2013-04-02 12:32:00,
2013-04-02 07:42:00,15.0,14.0,-100.00,WSW,250,4.0,4.0,95,-99.99,,,-99.99,,2013-04-02 12:42:00,
2013-04-02 07:53:00,15.0,14.0,-100.00,WSW,250,4.0,4.0,95,-99.99,,,-99.99,,2013-04-02 12:53:00,
2013-04-02 08:02:00,15.0,14.0,-100.00,WSW,250,4.0,4.0,95,-99.99,,,-99.99,,2013-04-02 13:02:00,
2013-04-02 08:33:00,15.0,14.0,-100.00,WSW,255,4.0,4.0,95,-99.99,,,-99.99,,2013-04-02 13:33:00,
2013-04-02 08:42:00,15.0,14.0,-100.00,WSW,255,4.0,4.0,95,-99.99,,,-99.99,,2013-04-02 13:42:00,
2013-04-02 08:52:00,15.0,14.0,-100.00,WSW,255,4.0,4.0,95,-99.99,,,-99.99,,2013-04-02 13:52:00,
2013-04-02 09:02:00,15.0,14.0,-100.00,WSW,255,4.0,4.0,95,-99.99,,,-99.99,,2013-04-02 14:02:00,
2013-04-02 09:33:00,18.0,15.0,-100.00,NW,310,4.0,4.0,88,-99.99,,,-99.99,,2013-04-02 14:33:00,
2013-04-02 09:42:00,18.0,15.0,-100.00,NW,310,4.0,4.0,88,-99.99,,,-99.99,,2013-04-02 14:42:00,
2013-04-02 09:52:00,18.0,15.0,-100.00,NW,310,4.0,4.0,88,-99.99,,,-99.99,,2013-04-02 14:52:00,
2013-04-02 10:02:00,18.0,15.0,-100.00,NW,310,4.0,4.0,88,-99.99,,,-99.99,,2013-04-02 15:02:00,
2013-04-02 10:11:00,23.0,17.0,-100.00,NW,310,4.0,5.0,80,-99.99,,,-99.99,,2013-04-02 15:11:00,
2013-04-02 10:33:00,23.0,17.0,-100.00,NW,310,4.0,5.0,80,-99.99,,,-99.99,,2013-04-02 15:33:00,
2013-04-02 10:43:00,23.0,17.0,-100.00,NW,310,4.0,5.0,80,-99.99,,,-99.99,,2013-04-02 15:43:00,
2013-04-02 10:58:00,23.0,17.0,-100.00,NW,310,4.0,5.0,80,-99.99,,,-99.99,,2013-04-02 15:58:00,
2013-04-02 11:04:00,23.0,17.0,-100.00,NW,310,4.0,5.0,80,-99.99,,,-99.99,,2013-04-02 16:04:00,
2013-04-02 11:12:00,23.0,16.0,-100.00,NW,325,7.0,9.0,76,-99.99,,,-99.99,,2013-04-02 16:12:00,
2013-04-02 11:39:00,23.0,16.0,-100.00,NW,325,7.0,9.0,76,-99.99,,,-99.99,,2013-04-02 16:39:00,
2013-04-02 11:44:00,23.0,16.0,-100.00,NW,325,7.0,9.0,76,-99.99,,,-99.99,,2013-04-02 16:44:00,
2013-04-02 11:53:00,23.0,16.0,-100.00,NW,325,7.0,9.0,76,-99.99,,,-99.99,,2013-04-02 16:53:00,
2013-04-02 12:05:00,23.0,16.0,-100.00,NW,325,7.0,9.0,76,-99.99,,,-99.99,,2013-04-02 17:05:00,
2013-04-02 12:10:00,24.0,18.0,-100.00,SW,235,8.0,9.0,78,-99.99,,,-99.99,,2013-04-02 17:10:00,
2013-04-02 12:35:00,24.0,18.0,-100.00,SW,235,8.0,9.0,78,-99.99,,,-99.99,,2013-04-02 17:35:00,
2013-04-02 12:43:00,24.0,18.0,-100.00,SW,235,8.0,9.0,78,-99.99,,,-99.99,,2013-04-02 17:43:00,
2013-04-02 12:55:00,24.0,18.0,-100.00,SW,235,8.0,9.0,78,-99.99,,,-99.99,,2013-04-02 17:55:00,
2013-04-02 13:03:00,24.0,18.0,-100.00,SW,235,8.0,9.0,78,-99.99,,,-99.99,,2013-04-02 18:03:00,
2013-04-02 13:35:00,26.0,20.0,-100.00,NW,325,6.0,7.0,76,-99.99,,,-99.99,,2013-04-02 18:35:00,
2013-04-02 13:43:00,26.0,20.0,-100.00,NW,325,6.0,7.0,76,-99.99,,,-99.99,,2013-04-02 18:43:00,
2013-04-02 13:57:00,26.0,20.0,-100.00,NW,325,6.0,7.0,76,-99.99,,,-99.99,,2013-04-02 18:57:00,
2013-04-02 14:10:00,28.0,20.0,-100.00,NW,320,4.0,5.0,72,-99.99,,,-99.99,,2013-04-02 19:10:00,
2013-04-02 14:34:00,28.0,20.0,-100.00,NW,320,4.0,5.0,72,-99.99,,,-99.99,,2013-04-02 19:34:00,
2013-04-02 14:47:00,28.0,20.0,-100.00,NW,320,4.0,5.0,72,-99.99,,,-99.99,,2013-04-02 19:47:00,
2013-04-02 14:57:00,28.0,20.0,-100.00,NW,320,4.0,5.0,72,-99.99,,,-99.99,,2013-04-02 19:57:00,
2013-04-02 15:03:00,28.0,20.0,-100.00,NW,320,4.0,5.0,72,-99.99,,,-99.99,,2013-04-02 20:03:00,
2013-04-02 15:10:00,28.0,20.0,-100.00,SW,235,6.0,7.0,73,-99.99,,,-99.99,,2013-04-02 20:10:00,
2013-04-02 15:34:00,28.0,20.0,-100.00,SW,235,6.0,7.0,73,-99.99,,,-99.99,,2013-04-02 20:34:00,
2013-04-02 15:44:00,28.0,20.0,-100.00,SW,235,6.0,7.0,73,-99.99,,,-99.99,,2013-04-02 20:44:00,
2013-04-02 15:54:00,28.0,20.0,-100.00,SW,235,6.0,7.0,73,-99.99,,,-99.99,,2013-04-02 20:54:00,
2013-04-02 16:04:00,28.0,20.0,-100.00,SW,235,6.0,7.0,73,-99.99,,,-99.99,,2013-04-02 21:04:00,
2013-04-02 16:35:00,29.0,21.0,-100.00,SW,235,5.0,6.0,72,-99.99,,,-99.99,,2013-04-02 21:35:00,
2013-04-02 16:44:00,29.0,21.0,-100.00,SW,235,5.0,6.0,72,-99.99,,,-99.99,,2013-04-02 21:44:00,
2013-04-02 16:55:00,29.0,21.0,-100.00,SW,235,5.0,6.0,72,-99.99,,,-99.99,,2013-04-02 21:55:00,
2013-04-02 17:04:00,29.0,21.0,-100.00,SW,235,5.0,6.0,72,-99.99,,,-99.99,,2013-04-02 22:04:00,
2013-04-02 17:10:00,30.0,20.0,-100.00,North,10,5.0,6.0,66,-99.99,,,-99.99,,2013-04-02 22:10:00,
2013-04-02 17:34:00,30.0,20.0,-100.00,North,10,5.0,6.0,66,-99.99,,,-99.99,,2013-04-02 22:34:00,
2013-04-02 17:44:00,30.0,20.0,-100.00,North,10,5.0,6.0,66,-99.99,,,-99.99,,2013-04-02 22:44:00,
2013-04-02 17:54:00,30.0,20.0,-100.00,North,10,5.0,6.0,66,-99.99,,,-99.99,,2013-04-02 22:54:00,
2013-04-02 18:03:00,30.0,20.0,-100.00,North,10,5.0,6.0,66,-99.99,,,-99.99,,2013-04-02 23:03:00,
2013-04-02 18:10:00,31.0,19.0,-100.00,NW,320,3.0,3.0,61,-99.99,,,-99.99,,2013-04-02 23:10:00,
2013-04-02 18:37:00,31.0,19.0,-100.00,NW,320,3.0,3.0,61,-99.99,,,-99.99,,2013-04-02 23:37:00,
2013-04-02 18:43:00,31.0,19.0,-100.00,NW,320,3.0,3.0,61,-99.99,,,-99.99,,2013-04-02 23:43:00,
2013-04-02 18:54:00,31.0,19.0,-100.00,NW,320,3.0,3.0,61,-99.99,,,-99.99,,2013-04-02 23:54:00,
2013-04-02 19:04:00,31.0,19.0,-100.00,NW,320,3.0,3.0,61,-99.99,,,-99.99,,2013-04-03 00:04:00,
2013-04-02 19:34:00,29.0,20.0,-100.00,NW,310,2.0,3.0,69,-99.99,,,-99.99,,2013-04-03 00:34:00,
2013-04-02 19:47:00,29.0,20.0,-100.00,NW,310,2.0,3.0,69,-99.99,,,-99.99,,2013-04-03 00:47:00,
2013-04-02 20:03:00,29.0,20.0,-100.00,NW,310,2.0,3.0,69,-99.99,,,-99.99,,2013-04-03 01:03:00,
2013-04-02 20:11:00,26.0,18.0,-100.00,NW,325,0.0,0.0,72,-99.99,,,-99.99,,2013-04-03 01:11:00,
2013-04-02 20:34:00,26.0,18.0,-100.00,NW,325,0.0,0.0,72,-99.99,,,-99.99,,2013-04-03 01:34:00,
2013-04-02 20:43:00,26.0,18.0,-100.00,NW,325,0.0,0.0,72,-99.99,,,-99.99,,2013-04-03 01:43:00,
2013-04-02 20:53:00,26.0,18.0,-100.00,NW,325,0.0,0.0,72,-99.99,,,-99.99,,2013-04-03 01:53:00,
2013-04-02 21:03:00,26.0,18.0,-100.00,NW,325,0.0,0.0,72,-99.99,,,-99.99,,2013-04-03 02:03:00,
2013-04-02 21:10:00,22.0,18.0,-100.00,SW,230,0.0,0.0,86,-99.99,,,-99.99,,2013-04-03 02:10:00,
2013-04-02 21:34:00,22.0,18.0,-100.00,SW,230,0.0,0.0,86,-99.99,,,-99.99,,2013-04-03 02:34:00,
2013-04-02 21:44:00,22.0,18.0,-100.00,SW,230,0.0,0.0,86,-99.99,,,-99.99,,2013-04-03 02:44:00,
2013-04-02 21:53:00,22.0,18.0,-100.00,SW,230,0.0,0.0,86,-99.99,,,-99.99,,2013-04-03 02:53:00,
2013-04-02 22:05:00,22.0,18.0,-100.00,SW,230,0.0,0.0,86,-99.99,,,-99.99,,2013-04-03 03:05:00,
2013-04-02 22:38:00,20.0,18.0,-100.00,South,175,1.0,1.0,94,-99.99,,,-99.99,,2013-04-03 03:38:00,
2013-04-02 22:44:00,20.0,18.0,-100.00,South,175,1.0,1.0,94,-99.99,,,-99.99,,2013-04-03 03:44:00,
2013-04-02 22:54:00,20.0,18.0,-100.00,South,175,1.0,1.0,94,-99.99,,,-99.99,,2013-04-03 03:54:00,
2013-04-02 23:03:00,20.0,18.0,-100.00,South,175,1.0,1.0,94,-99.99,,,-99.99,,2013-04-03 04:03:00,
2013-04-02 23:33:00,20.0,19.0,-100.00,SSE,165,4.0,4.0,99,-99.99,,,-99.99,,2013-04-03 04:33:00,
2013-04-02 23:43:00,20.0,19.0,-100.00,SSE,165,4.0,4.0,99,-99.99,,,-99.99,,2013-04-03 04:43:00,
2013-04-02 23:53:00,20.0,19.0,-100.00,SSE,165,4.0,4.0,99,-99.99,,,-99.99,,2013-04-03 04:53:00,